logo
Rechercher aéroport 
image banner adimage banner adimage banner ad
image banner ad

SGELCI - Estancia Laguna Ciervo

Situé à San Nicolas, Paraguay

ICAO - , IATA -

Données fournies par Airmate  

Information générale

Coordonnées: S22°19'52" W56°11'47"
Élévation : 1022 feet MSL.
Variation magnétique : -17° East
Voir autres Aéroports à Amambay Department

Données opérationnelles

Special qualification required
Heure actuelle UTC:
Heure actuelle locale:
Météo à : SBPP - Ponta Pora ( 56 km )
METAR: SBPP 251500Z 33008KT CAVOK 29/09 Q1021
TAF: TAF SBPP 250900Z 2512/2612 04010KT CAVOK TN18/2512Z TX31/2518Z BECMG 2513/2515 35010KT BECMG 2520/2522 06005KT BECMG 2600/2602 06012KT RMK PGH
Voir NOTAMs / SUP AIP / TFR affectant cet aéroport [VIEW]
Fréquences de communication: [VIEW]

Pistes:

Identifiant RWYQFULongueur (ft)Largeur (ft)SurfaceLDA (ft)
01352°357958DIRT
19172°357958DIRT

Coordonnées de l'aéroport

Adresse: San Nicolas Paraguay

Vue satellite de SGELCI